sensor_id;sensor_type;location;lat;lon;timestamp;P1;durP1;ratioP1;P2;durP2;ratioP2
8831;SDS011;4452;50.756;4.472;2023-05-31T00:00:31;10.02;;;8.20;;
8831;SDS011;4452;50.756;4.472;2023-05-31T00:02:56;11.05;;;7.57;;
8831;SDS011;4452;50.756;4.472;2023-05-31T00:05:22;14.27;;;7.95;;
8831;SDS011;4452;50.756;4.472;2023-05-31T00:07:48;12.82;;;7.68;;
8831;SDS011;4452;50.756;4.472;2023-05-31T00:10:13;11.25;;;7.57;;
8831;SDS011;4452;50.756;4.472;2023-05-31T00:12:39;9.23;;;7.30;;
8831;SDS011;4452;50.756;4.472;2023-05-31T00:15:05;10.63;;;8.38;;
8831;SDS011;4452;50.756;4.472;2023-05-31T00:17:31;8.50;;;7.50;;
8831;SDS011;4452;50.756;4.472;2023-05-31T00:19:57;9.63;;;7.65;;
8831;SDS011;4452;50.756;4.472;2023-05-31T00:22:22;9.27;;;8.02;;
8831;SDS011;4452;50.756;4.472;2023-05-31T00:24:48;9.98;;;7.65;;
8831;SDS011;4452;50.756;4.472;2023-05-31T00:27:13;9.48;;;7.50;;
8831;SDS011;4452;50.756;4.472;2023-05-31T00:29:40;9.70;;;7.72;;
8831;SDS011;4452;50.756;4.472;2023-05-31T00:32:06;13.60;;;8.30;;
8831;SDS011;4452;50.756;4.472;2023-05-31T00:34:32;9.48;;;7.75;;
8831;SDS011;4452;50.756;4.472;2023-05-31T00:36:57;10.60;;;7.78;;
8831;SDS011;4452;50.756;4.472;2023-05-31T00:39:23;15.43;;;8.20;;
8831;SDS011;4452;50.756;4.472;2023-05-31T00:41:49;11.35;;;8.30;;
8831;SDS011;4452;50.756;4.472;2023-05-31T00:44:14;9.23;;;8.07;;
8831;SDS011;4452;50.756;4.472;2023-05-31T00:46:40;13.35;;;8.50;;
8831;SDS011;4452;50.756;4.472;2023-05-31T00:49:06;9.73;;;8.13;;
8831;SDS011;4452;50.756;4.472;2023-05-31T00:51:33;9.55;;;7.85;;
8831;SDS011;4452;50.756;4.472;2023-05-31T00:53:59;10.13;;;7.25;;
8831;SDS011;4452;50.756;4.472;2023-05-31T00:56:26;11.43;;;8.32;;
8831;SDS011;4452;50.756;4.472;2023-05-31T00:58:53;11.23;;;8.43;;
8831;SDS011;4452;50.756;4.472;2023-05-31T01:01:21;10.90;;;8.18;;
8831;SDS011;4452;50.756;4.472;2023-05-31T01:03:51;12.23;;;8.27;;
8831;SDS011;4452;50.756;4.472;2023-05-31T01:06:21;10.13;;;8.80;;
8831;SDS011;4452;50.756;4.472;2023-05-31T01:08:48;8.88;;;7.97;;
8831;SDS011;4452;50.756;4.472;2023-05-31T01:17:09;11.70;;;8.75;;
8831;SDS011;4452;50.756;4.472;2023-05-31T01:20:04;10.95;;;8.68;;
8831;SDS011;4452;50.756;4.472;2023-05-31T01:28:22;9.77;;;8.80;;
8831;SDS011;4452;50.756;4.472;2023-05-31T01:30:50;11.75;;;8.95;;
8831;SDS011;4452;50.756;4.472;2023-05-31T01:33:18;15.38;;;9.23;;
8831;SDS011;4452;50.756;4.472;2023-05-31T01:35:45;11.35;;;8.82;;
8831;SDS011;4452;50.756;4.472;2023-05-31T01:38:11;13.85;;;9.10;;
8831;SDS011;4452;50.756;4.472;2023-05-31T01:40:37;8.38;;;7.53;;
8831;SDS011;4452;50.756;4.472;2023-05-31T01:43:03;14.13;;;9.70;;
8831;SDS011;4452;50.756;4.472;2023-05-31T01:45:30;13.95;;;9.25;;
8831;SDS011;4452;50.756;4.472;2023-05-31T01:48:01;13.85;;;9.57;;
8831;SDS011;4452;50.756;4.472;2023-05-31T01:50:29;12.70;;;9.90;;
8831;SDS011;4452;50.756;4.472;2023-05-31T01:52:58;11.73;;;9.48;;
8831;SDS011;4452;50.756;4.472;2023-05-31T01:55:23;13.27;;;9.68;;
8831;SDS011;4452;50.756;4.472;2023-05-31T01:57:49;15.38;;;11.18;;
8831;SDS011;4452;50.756;4.472;2023-05-31T02:00:16;13.30;;;10.52;;
8831;SDS011;4452;50.756;4.472;2023-05-31T02:02:44;12.90;;;9.77;;
8831;SDS011;4452;50.756;4.472;2023-05-31T02:05:11;11.98;;;9.68;;
8831;SDS011;4452;50.756;4.472;2023-05-31T02:07:41;11.30;;;9.93;;
8831;SDS011;4452;50.756;4.472;2023-05-31T02:10:07;11.45;;;9.60;;
8831;SDS011;4452;50.756;4.472;2023-05-31T02:12:34;13.73;;;9.85;;
8831;SDS011;4452;50.756;4.472;2023-05-31T02:14:59;15.40;;;10.48;;
8831;SDS011;4452;50.756;4.472;2023-05-31T02:17:25;14.05;;;9.95;;
8831;SDS011;4452;50.756;4.472;2023-05-31T02:19:54;11.95;;;10.25;;
8831;SDS011;4452;50.756;4.472;2023-05-31T02:22:20;21.55;;;11.25;;
8831;SDS011;4452;50.756;4.472;2023-05-31T02:24:46;11.48;;;10.18;;
8831;SDS011;4452;50.756;4.472;2023-05-31T02:27:13;15.05;;;10.70;;
8831;SDS011;4452;50.756;4.472;2023-05-31T02:29:39;17.52;;;11.25;;
8831;SDS011;4452;50.756;4.472;2023-05-31T02:32:05;11.95;;;10.02;;
8831;SDS011;4452;50.756;4.472;2023-05-31T02:34:32;14.00;;;11.13;;
8831;SDS011;4452;50.756;4.472;2023-05-31T02:36:59;13.95;;;11.55;;
8831;SDS011;4452;50.756;4.472;2023-05-31T02:39:25;14.70;;;10.88;;
8831;SDS011;4452;50.756;4.472;2023-05-31T02:41:51;14.05;;;10.77;;
8831;SDS011;4452;50.756;4.472;2023-05-31T02:44:17;17.40;;;11.95;;
8831;SDS011;4452;50.756;4.472;2023-05-31T02:46:42;12.25;;;10.95;;
8831;SDS011;4452;50.756;4.472;2023-05-31T02:49:08;14.00;;;11.18;;
8831;SDS011;4452;50.756;4.472;2023-05-31T02:51:34;17.83;;;11.63;;
8831;SDS011;4452;50.756;4.472;2023-05-31T02:54:00;15.73;;;11.68;;
8831;SDS011;4452;50.756;4.472;2023-05-31T02:56:25;17.50;;;11.77;;
8831;SDS011;4452;50.756;4.472;2023-05-31T02:58:51;15.02;;;12.13;;
8831;SDS011;4452;50.756;4.472;2023-05-31T03:01:17;16.73;;;11.38;;
8831;SDS011;4452;50.756;4.472;2023-05-31T03:03:43;14.93;;;12.02;;
8831;SDS011;4452;50.756;4.472;2023-05-31T03:06:09;16.00;;;12.02;;
8831;SDS011;4452;50.756;4.472;2023-05-31T03:08:36;14.10;;;11.60;;
8831;SDS011;4452;50.756;4.472;2023-05-31T03:11:02;14.55;;;12.00;;
8831;SDS011;4452;50.756;4.472;2023-05-31T03:13:28;19.63;;;12.32;;
8831;SDS011;4452;50.756;4.472;2023-05-31T03:15:53;17.50;;;12.85;;
8831;SDS011;4452;50.756;4.472;2023-05-31T03:18:20;18.83;;;12.90;;
8831;SDS011;4452;50.756;4.472;2023-05-31T03:20:45;17.45;;;13.48;;
8831;SDS011;4452;50.756;4.472;2023-05-31T03:23:11;18.70;;;13.20;;
8831;SDS011;4452;50.756;4.472;2023-05-31T03:25:37;20.73;;;13.15;;
8831;SDS011;4452;50.756;4.472;2023-05-31T03:28:02;17.90;;;12.90;;
8831;SDS011;4452;50.756;4.472;2023-05-31T03:30:29;24.02;;;14.00;;
8831;SDS011;4452;50.756;4.472;2023-05-31T03:32:54;18.98;;;13.60;;
8831;SDS011;4452;50.756;4.472;2023-05-31T03:35:20;19.85;;;13.40;;
8831;SDS011;4452;50.756;4.472;2023-05-31T03:37:46;16.25;;;13.02;;
8831;SDS011;4452;50.756;4.472;2023-05-31T03:40:11;16.73;;;12.85;;
8831;SDS011;4452;50.756;4.472;2023-05-31T03:42:37;18.60;;;12.75;;
8831;SDS011;4452;50.756;4.472;2023-05-31T03:45:03;22.73;;;14.30;;
8831;SDS011;4452;50.756;4.472;2023-05-31T03:47:29;20.05;;;13.85;;
8831;SDS011;4452;50.756;4.472;2023-05-31T03:49:55;19.70;;;13.68;;
8831;SDS011;4452;50.756;4.472;2023-05-31T03:52:20;21.48;;;14.75;;
8831;SDS011;4452;50.756;4.472;2023-05-31T03:54:46;20.52;;;14.10;;
8831;SDS011;4452;50.756;4.472;2023-05-31T03:57:12;20.45;;;14.05;;
8831;SDS011;4452;50.756;4.472;2023-05-31T03:59:38;22.35;;;15.05;;
8831;SDS011;4452;50.756;4.472;2023-05-31T04:02:03;24.67;;;14.15;;
8831;SDS011;4452;50.756;4.472;2023-05-31T04:04:29;19.77;;;13.23;;
8831;SDS011;4452;50.756;4.472;2023-05-31T04:06:55;17.88;;;13.65;;
8831;SDS011;4452;50.756;4.472;2023-05-31T04:09:21;20.58;;;15.07;;
8831;SDS011;4452;50.756;4.472;2023-05-31T04:11:48;18.10;;;14.70;;
8831;SDS011;4452;50.756;4.472;2023-05-31T04:14:14;20.58;;;13.55;;
8831;SDS011;4452;50.756;4.472;2023-05-31T04:16:40;20.30;;;14.02;;
8831;SDS011;4452;50.756;4.472;2023-05-31T04:19:06;20.83;;;13.60;;
8831;SDS011;4452;50.756;4.472;2023-05-31T04:21:32;20.98;;;14.48;;
8831;SDS011;4452;50.756;4.472;2023-05-31T04:23:58;24.92;;;14.45;;
8831;SDS011;4452;50.756;4.472;2023-05-31T04:26:24;23.25;;;13.75;;
8831;SDS011;4452;50.756;4.472;2023-05-31T04:28:51;19.60;;;13.57;;
8831;SDS011;4452;50.756;4.472;2023-05-31T04:31:19;19.85;;;15.05;;
8831;SDS011;4452;50.756;4.472;2023-05-31T04:33:49;24.08;;;15.27;;
8831;SDS011;4452;50.756;4.472;2023-05-31T04:36:19;22.10;;;14.27;;
8831;SDS011;4452;50.756;4.472;2023-05-31T04:38:45;18.80;;;14.60;;
8831;SDS011;4452;50.756;4.472;2023-05-31T04:41:13;22.42;;;15.07;;
8831;SDS011;4452;50.756;4.472;2023-05-31T04:43:40;19.73;;;14.20;;
8831;SDS011;4452;50.756;4.472;2023-05-31T04:46:07;21.92;;;15.38;;
8831;SDS011;4452;50.756;4.472;2023-05-31T04:48:34;19.80;;;14.75;;
8831;SDS011;4452;50.756;4.472;2023-05-31T04:51:04;20.63;;;14.73;;
8831;SDS011;4452;50.756;4.472;2023-05-31T04:53:29;18.75;;;13.48;;
8831;SDS011;4452;50.756;4.472;2023-05-31T04:55:55;18.15;;;14.88;;
8831;SDS011;4452;50.756;4.472;2023-05-31T04:58:21;25.88;;;14.55;;
8831;SDS011;4452;50.756;4.472;2023-05-31T05:00:47;22.15;;;13.48;;
8831;SDS011;4452;50.756;4.472;2023-05-31T05:03:13;18.17;;;14.82;;
8831;SDS011;4452;50.756;4.472;2023-05-31T05:05:39;22.27;;;15.50;;
8831;SDS011;4452;50.756;4.472;2023-05-31T05:08:05;20.90;;;14.93;;
8831;SDS011;4452;50.756;4.472;2023-05-31T05:10:32;21.02;;;14.60;;
8831;SDS011;4452;50.756;4.472;2023-05-31T05:12:58;18.63;;;14.13;;
8831;SDS011;4452;50.756;4.472;2023-05-31T05:15:23;19.55;;;14.73;;
8831;SDS011;4452;50.756;4.472;2023-05-31T05:17:49;20.48;;;14.35;;
8831;SDS011;4452;50.756;4.472;2023-05-31T05:20:15;18.63;;;13.50;;
8831;SDS011;4452;50.756;4.472;2023-05-31T05:22:41;18.50;;;13.45;;
8831;SDS011;4452;50.756;4.472;2023-05-31T05:25:08;21.42;;;15.05;;
8831;SDS011;4452;50.756;4.472;2023-05-31T05:27:33;17.65;;;14.15;;
8831;SDS011;4452;50.756;4.472;2023-05-31T05:29:59;22.48;;;14.48;;
8831;SDS011;4452;50.756;4.472;2023-05-31T05:32:25;19.92;;;14.52;;
8831;SDS011;4452;50.756;4.472;2023-05-31T05:34:50;17.30;;;14.32;;
8831;SDS011;4452;50.756;4.472;2023-05-31T05:37:16;20.27;;;14.75;;
8831;SDS011;4452;50.756;4.472;2023-05-31T05:39:42;18.23;;;13.70;;
8831;SDS011;4452;50.756;4.472;2023-05-31T05:42:07;18.55;;;13.90;;
8831;SDS011;4452;50.756;4.472;2023-05-31T05:44:33;25.38;;;14.48;;
8831;SDS011;4452;50.756;4.472;2023-05-31T05:46:59;18.40;;;13.75;;
8831;SDS011;4452;50.756;4.472;2023-05-31T05:49:24;16.35;;;13.73;;
8831;SDS011;4452;50.756;4.472;2023-05-31T05:51:50;20.77;;;14.65;;
8831;SDS011;4452;50.756;4.472;2023-05-31T05:54:15;19.60;;;13.75;;
8831;SDS011;4452;50.756;4.472;2023-05-31T05:56:41;17.55;;;14.38;;
8831;SDS011;4452;50.756;4.472;2023-05-31T05:59:07;19.70;;;13.57;;
8831;SDS011;4452;50.756;4.472;2023-05-31T06:01:33;20.30;;;14.60;;
8831;SDS011;4452;50.756;4.472;2023-05-31T06:04:00;22.13;;;14.15;;
8831;SDS011;4452;50.756;4.472;2023-05-31T06:06:26;18.75;;;13.98;;
8831;SDS011;4452;50.756;4.472;2023-05-31T06:08:52;26.58;;;14.48;;
8831;SDS011;4452;50.756;4.472;2023-05-31T06:11:17;20.60;;;14.35;;
8831;SDS011;4452;50.756;4.472;2023-05-31T06:13:43;19.08;;;14.30;;
8831;SDS011;4452;50.756;4.472;2023-05-31T06:16:10;19.65;;;14.18;;
8831;SDS011;4452;50.756;4.472;2023-05-31T06:18:38;23.13;;;13.90;;
8831;SDS011;4452;50.756;4.472;2023-05-31T06:21:03;23.08;;;14.57;;
8831;SDS011;4452;50.756;4.472;2023-05-31T06:23:29;26.60;;;14.20;;
8831;SDS011;4452;50.756;4.472;2023-05-31T06:25:54;18.92;;;13.73;;
8831;SDS011;4452;50.756;4.472;2023-05-31T06:28:20;19.42;;;14.60;;
8831;SDS011;4452;50.756;4.472;2023-05-31T06:30:46;19.88;;;14.27;;
8831;SDS011;4452;50.756;4.472;2023-05-31T06:33:12;21.58;;;13.90;;
8831;SDS011;4452;50.756;4.472;2023-05-31T06:35:38;15.10;;;11.77;;
8831;SDS011;4452;50.756;4.472;2023-05-31T06:38:06;18.65;;;13.55;;
8831;SDS011;4452;50.756;4.472;2023-05-31T06:40:32;18.95;;;13.50;;
8831;SDS011;4452;50.756;4.472;2023-05-31T06:42:58;19.85;;;13.15;;
8831;SDS011;4452;50.756;4.472;2023-05-31T06:45:24;19.38;;;13.55;;
8831;SDS011;4452;50.756;4.472;2023-05-31T06:47:49;21.40;;;12.77;;
8831;SDS011;4452;50.756;4.472;2023-05-31T06:50:15;23.00;;;13.80;;
8831;SDS011;4452;50.756;4.472;2023-05-31T06:52:41;21.63;;;13.35;;
8831;SDS011;4452;50.756;4.472;2023-05-31T06:55:07;19.13;;;12.02;;
8831;SDS011;4452;50.756;4.472;2023-05-31T06:57:33;25.95;;;13.13;;
8831;SDS011;4452;50.756;4.472;2023-05-31T06:59:58;17.98;;;13.13;;
8831;SDS011;4452;50.756;4.472;2023-05-31T07:02:24;16.30;;;13.13;;
8831;SDS011;4452;50.756;4.472;2023-05-31T07:04:52;20.98;;;12.48;;
8831;SDS011;4452;50.756;4.472;2023-05-31T07:07:18;23.60;;;12.98;;
8831;SDS011;4452;50.756;4.472;2023-05-31T07:09:43;20.50;;;12.57;;
8831;SDS011;4452;50.756;4.472;2023-05-31T07:12:09;17.52;;;12.73;;
8831;SDS011;4452;50.756;4.472;2023-05-31T07:14:34;17.75;;;12.93;;
8831;SDS011;4452;50.756;4.472;2023-05-31T07:17:01;16.50;;;11.55;;
8831;SDS011;4452;50.756;4.472;2023-05-31T07:19:28;17.05;;;12.00;;
8831;SDS011;4452;50.756;4.472;2023-05-31T07:21:53;16.75;;;11.88;;
8831;SDS011;4452;50.756;4.472;2023-05-31T07:24:19;19.42;;;11.55;;
8831;SDS011;4452;50.756;4.472;2023-05-31T07:26:45;21.90;;;11.23;;
8831;SDS011;4452;50.756;4.472;2023-05-31T07:29:10;20.45;;;11.80;;
8831;SDS011;4452;50.756;4.472;2023-05-31T07:31:37;25.20;;;12.10;;
8831;SDS011;4452;50.756;4.472;2023-05-31T07:34:03;20.65;;;11.32;;
8831;SDS011;4452;50.756;4.472;2023-05-31T07:36:28;14.45;;;11.05;;
8831;SDS011;4452;50.756;4.472;2023-05-31T07:38:54;23.63;;;10.57;;
8831;SDS011;4452;50.756;4.472;2023-05-31T07:41:19;15.45;;;11.60;;
8831;SDS011;4452;50.756;4.472;2023-05-31T07:43:45;15.32;;;10.57;;
8831;SDS011;4452;50.756;4.472;2023-05-31T07:46:12;19.30;;;11.20;;
8831;SDS011;4452;50.756;4.472;2023-05-31T07:48:37;16.52;;;11.18;;
8831;SDS011;4452;50.756;4.472;2023-05-31T07:51:03;13.60;;;8.57;;
8831;SDS011;4452;50.756;4.472;2023-05-31T07:53:29;14.63;;;10.82;;
8831;SDS011;4452;50.756;4.472;2023-05-31T07:55:55;16.55;;;9.63;;
8831;SDS011;4452;50.756;4.472;2023-05-31T07:58:21;12.60;;;10.40;;
8831;SDS011;4452;50.756;4.472;2023-05-31T08:00:46;15.73;;;10.07;;
8831;SDS011;4452;50.756;4.472;2023-05-31T08:03:13;16.58;;;9.68;;
8831;SDS011;4452;50.756;4.472;2023-05-31T08:05:39;17.17;;;10.20;;
8831;SDS011;4452;50.756;4.472;2023-05-31T08:08:05;16.15;;;9.90;;
8831;SDS011;4452;50.756;4.472;2023-05-31T08:10:31;15.52;;;10.07;;
8831;SDS011;4452;50.756;4.472;2023-05-31T08:12:57;17.98;;;10.20;;
8831;SDS011;4452;50.756;4.472;2023-05-31T08:15:23;14.93;;;10.57;;
8831;SDS011;4452;50.756;4.472;2023-05-31T08:17:48;12.73;;;9.18;;
8831;SDS011;4452;50.756;4.472;2023-05-31T08:20:15;16.98;;;9.70;;
8831;SDS011;4452;50.756;4.472;2023-05-31T08:22:42;15.88;;;9.65;;
8831;SDS011;4452;50.756;4.472;2023-05-31T08:25:09;13.57;;;9.88;;
8831;SDS011;4452;50.756;4.472;2023-05-31T08:27:38;12.75;;;8.98;;
8831;SDS011;4452;50.756;4.472;2023-05-31T08:30:05;17.52;;;8.85;;
8831;SDS011;4452;50.756;4.472;2023-05-31T08:32:34;15.02;;;8.20;;
8831;SDS011;4452;50.756;4.472;2023-05-31T08:35:00;11.55;;;8.45;;
8831;SDS011;4452;50.756;4.472;2023-05-31T08:37:26;13.73;;;8.02;;
8831;SDS011;4452;50.756;4.472;2023-05-31T08:39:51;11.57;;;7.53;;
8831;SDS011;4452;50.756;4.472;2023-05-31T08:42:51;13.82;;;8.75;;
8831;SDS011;4452;50.756;4.472;2023-05-31T08:45:34;18.58;;;9.15;;
8831;SDS011;4452;50.756;4.472;2023-05-31T08:50:34;11.15;;;8.57;;
8831;SDS011;4452;50.756;4.472;2023-05-31T08:53:00;11.85;;;7.88;;
8831;SDS011;4452;50.756;4.472;2023-05-31T08:55:27;14.95;;;8.00;;
8831;SDS011;4452;50.756;4.472;2023-05-31T08:57:54;16.05;;;8.48;;
8831;SDS011;4452;50.756;4.472;2023-05-31T09:00:21;11.32;;;9.07;;
8831;SDS011;4452;50.756;4.472;2023-05-31T09:02:47;12.95;;;7.90;;
8831;SDS011;4452;50.756;4.472;2023-05-31T09:05:15;13.80;;;7.90;;
8831;SDS011;4452;50.756;4.472;2023-05-31T09:07:42;18.05;;;7.80;;
8831;SDS011;4452;50.756;4.472;2023-05-31T09:10:08;12.88;;;7.60;;
8831;SDS011;4452;50.756;4.472;2023-05-31T09:12:37;18.70;;;8.00;;
8831;SDS011;4452;50.756;4.472;2023-05-31T09:15:04;13.00;;;7.03;;
8831;SDS011;4452;50.756;4.472;2023-05-31T09:17:31;13.93;;;7.05;;
8831;SDS011;4452;50.756;4.472;2023-05-31T09:19:58;14.85;;;7.30;;
8831;SDS011;4452;50.756;4.472;2023-05-31T09:22:25;16.23;;;7.60;;
8831;SDS011;4452;50.756;4.472;2023-05-31T09:24:58;9.95;;;6.80;;
8831;SDS011;4452;50.756;4.472;2023-05-31T09:27:25;10.45;;;6.88;;
8831;SDS011;4452;50.756;4.472;2023-05-31T09:29:54;17.48;;;7.50;;
8831;SDS011;4452;50.756;4.472;2023-05-31T09:32:21;14.07;;;7.30;;
8831;SDS011;4452;50.756;4.472;2023-05-31T09:34:47;13.15;;;7.70;;
8831;SDS011;4452;50.756;4.472;2023-05-31T09:37:22;10.95;;;6.65;;
8831;SDS011;4452;50.756;4.472;2023-05-31T09:39:55;18.90;;;7.22;;
8831;SDS011;4452;50.756;4.472;2023-05-31T09:42:21;13.27;;;7.75;;
8831;SDS011;4452;50.756;4.472;2023-05-31T09:44:50;11.38;;;6.97;;
8831;SDS011;4452;50.756;4.472;2023-05-31T09:47:16;8.18;;;6.60;;
8831;SDS011;4452;50.756;4.472;2023-05-31T09:49:42;14.63;;;7.43;;
8831;SDS011;4452;50.756;4.472;2023-05-31T09:52:12;15.00;;;7.53;;
8831;SDS011;4452;50.756;4.472;2023-05-31T09:54:38;9.75;;;7.10;;
8831;SDS011;4452;50.756;4.472;2023-05-31T09:57:04;10.57;;;7.35;;
8831;SDS011;4452;50.756;4.472;2023-05-31T09:59:33;12.77;;;6.43;;
8831;SDS011;4452;50.756;4.472;2023-05-31T10:01:59;11.18;;;7.28;;
8831;SDS011;4452;50.756;4.472;2023-05-31T10:04:26;12.13;;;7.70;;
8831;SDS011;4452;50.756;4.472;2023-05-31T10:06:53;12.95;;;7.45;;
8831;SDS011;4452;50.756;4.472;2023-05-31T10:09:19;12.88;;;6.60;;
8831;SDS011;4452;50.756;4.472;2023-05-31T10:11:50;11.23;;;6.43;;
8831;SDS011;4452;50.756;4.472;2023-05-31T10:16:48;9.77;;;6.00;;
8831;SDS011;4452;50.756;4.472;2023-05-31T10:19:19;11.70;;;5.57;;
8831;SDS011;4452;50.756;4.472;2023-05-31T10:21:49;7.95;;;5.78;;
8831;SDS011;4452;50.756;4.472;2023-05-31T10:25:00;10.65;;;6.53;;
8831;SDS011;4452;50.756;4.472;2023-05-31T10:27:17;22.48;;;5.60;;
8831;SDS011;4452;50.756;4.472;2023-05-31T10:30:02;10.73;;;5.47;;
8831;SDS011;4452;50.756;4.472;2023-05-31T10:32:45;10.85;;;6.20;;
8831;SDS011;4452;50.756;4.472;2023-05-31T10:35:18;11.88;;;5.07;;
8831;SDS011;4452;50.756;4.472;2023-05-31T10:37:44;9.82;;;5.13;;
8831;SDS011;4452;50.756;4.472;2023-05-31T10:40:15;8.32;;;4.78;;
8831;SDS011;4452;50.756;4.472;2023-05-31T10:43:03;10.98;;;4.18;;
8831;SDS011;4452;50.756;4.472;2023-05-31T10:45:41;7.97;;;4.53;;
8831;SDS011;4452;50.756;4.472;2023-05-31T10:51:06;10.00;;;4.10;;
8831;SDS011;4452;50.756;4.472;2023-05-31T10:53:36;8.07;;;4.43;;
8831;SDS011;4452;50.756;4.472;2023-05-31T10:56:04;8.55;;;4.47;;
8831;SDS011;4452;50.756;4.472;2023-05-31T11:01:04;9.90;;;4.63;;
8831;SDS011;4452;50.756;4.472;2023-05-31T11:03:48;6.53;;;4.25;;
8831;SDS011;4452;50.756;4.472;2023-05-31T11:06:15;10.30;;;4.47;;
8831;SDS011;4452;50.756;4.472;2023-05-31T11:14:09;11.50;;;4.32;;
8831;SDS011;4452;50.756;4.472;2023-05-31T11:19:15;7.80;;;4.30;;
8831;SDS011;4452;50.756;4.472;2023-05-31T11:21:52;9.43;;;4.07;;
8831;SDS011;4452;50.756;4.472;2023-05-31T11:24:39;12.52;;;4.32;;
8831;SDS011;4452;50.756;4.472;2023-05-31T11:27:33;7.97;;;4.10;;
8831;SDS011;4452;50.756;4.472;2023-05-31T11:35:04;5.80;;;3.85;;
8831;SDS011;4452;50.756;4.472;2023-05-31T11:37:35;9.65;;;3.92;;
8831;SDS011;4452;50.756;4.472;2023-05-31T11:40:06;10.70;;;4.10;;
8831;SDS011;4452;50.756;4.472;2023-05-31T11:42:37;7.25;;;4.15;;
8831;SDS011;4452;50.756;4.472;2023-05-31T11:45:05;6.97;;;4.15;;
8831;SDS011;4452;50.756;4.472;2023-05-31T11:47:32;7.75;;;3.80;;
8831;SDS011;4452;50.756;4.472;2023-05-31T11:49:59;10.23;;;4.05;;
8831;SDS011;4452;50.756;4.472;2023-05-31T11:52:27;9.48;;;4.13;;
8831;SDS011;4452;50.756;4.472;2023-05-31T11:55:38;9.35;;;4.25;;
8831;SDS011;4452;50.756;4.472;2023-05-31T11:57:48;9.38;;;3.65;;
8831;SDS011;4452;50.756;4.472;2023-05-31T12:00:20;9.10;;;4.30;;
8831;SDS011;4452;50.756;4.472;2023-05-31T12:02:52;13.07;;;4.13;;
8831;SDS011;4452;50.756;4.472;2023-05-31T12:05:28;9.32;;;4.22;;
8831;SDS011;4452;50.756;4.472;2023-05-31T12:07:56;8.07;;;4.13;;
8831;SDS011;4452;50.756;4.472;2023-05-31T12:10:30;8.90;;;4.10;;
8831;SDS011;4452;50.756;4.472;2023-05-31T12:12:57;8.13;;;4.07;;
8831;SDS011;4452;50.756;4.472;2023-05-31T12:15:23;11.93;;;4.10;;
8831;SDS011;4452;50.756;4.472;2023-05-31T12:17:51;10.48;;;3.88;;
8831;SDS011;4452;50.756;4.472;2023-05-31T12:20:16;5.00;;;3.45;;
8831;SDS011;4452;50.756;4.472;2023-05-31T12:22:42;8.75;;;4.20;;
8831;SDS011;4452;50.756;4.472;2023-05-31T12:25:08;6.40;;;4.18;;
8831;SDS011;4452;50.756;4.472;2023-05-31T12:27:34;10.13;;;4.43;;
8831;SDS011;4452;50.756;4.472;2023-05-31T12:30:00;11.93;;;4.10;;
8831;SDS011;4452;50.756;4.472;2023-05-31T12:32:27;13.52;;;3.92;;
8831;SDS011;4452;50.756;4.472;2023-05-31T12:35:03;7.68;;;4.25;;
8831;SDS011;4452;50.756;4.472;2023-05-31T12:37:32;8.00;;;3.97;;
8831;SDS011;4452;50.756;4.472;2023-05-31T12:40:16;7.43;;;4.20;;
8831;SDS011;4452;50.756;4.472;2023-05-31T12:42:47;7.93;;;4.05;;
8831;SDS011;4452;50.756;4.472;2023-05-31T12:45:16;10.40;;;4.05;;
8831;SDS011;4452;50.756;4.472;2023-05-31T12:47:42;5.95;;;4.03;;
8831;SDS011;4452;50.756;4.472;2023-05-31T12:50:08;12.43;;;4.47;;
8831;SDS011;4452;50.756;4.472;2023-05-31T12:52:38;15.52;;;4.63;;
8831;SDS011;4452;50.756;4.472;2023-05-31T12:55:04;11.23;;;3.78;;
8831;SDS011;4452;50.756;4.472;2023-05-31T12:57:31;7.18;;;4.13;;
8831;SDS011;4452;50.756;4.472;2023-05-31T13:00:00;8.82;;;4.07;;
8831;SDS011;4452;50.756;4.472;2023-05-31T13:02:30;14.02;;;4.43;;
8831;SDS011;4452;50.756;4.472;2023-05-31T13:04:56;7.88;;;4.30;;
8831;SDS011;4452;50.756;4.472;2023-05-31T13:07:22;9.32;;;4.28;;
8831;SDS011;4452;50.756;4.472;2023-05-31T13:09:47;6.43;;;4.28;;
8831;SDS011;4452;50.756;4.472;2023-05-31T13:12:13;13.10;;;4.93;;
8831;SDS011;4452;50.756;4.472;2023-05-31T13:14:39;8.93;;;4.18;;
8831;SDS011;4452;50.756;4.472;2023-05-31T13:17:04;9.07;;;4.55;;
8831;SDS011;4452;50.756;4.472;2023-05-31T13:19:30;14.77;;;5.00;;
8831;SDS011;4452;50.756;4.472;2023-05-31T13:21:57;7.25;;;4.40;;
8831;SDS011;4452;50.756;4.472;2023-05-31T13:24:23;8.18;;;4.35;;
8831;SDS011;4452;50.756;4.472;2023-05-31T13:26:48;8.68;;;4.07;;
8831;SDS011;4452;50.756;4.472;2023-05-31T13:29:14;11.18;;;4.72;;
8831;SDS011;4452;50.756;4.472;2023-05-31T13:31:41;11.88;;;4.43;;
8831;SDS011;4452;50.756;4.472;2023-05-31T13:34:07;18.52;;;4.00;;
8831;SDS011;4452;50.756;4.472;2023-05-31T13:36:33;7.05;;;4.25;;
8831;SDS011;4452;50.756;4.472;2023-05-31T13:38:59;14.45;;;4.03;;
8831;SDS011;4452;50.756;4.472;2023-05-31T13:41:24;11.40;;;4.63;;
8831;SDS011;4452;50.756;4.472;2023-05-31T13:43:50;9.27;;;4.43;;
8831;SDS011;4452;50.756;4.472;2023-05-31T13:46:16;9.55;;;4.40;;
8831;SDS011;4452;50.756;4.472;2023-05-31T13:48:42;13.70;;;4.07;;
8831;SDS011;4452;50.756;4.472;2023-05-31T13:51:09;14.35;;;4.00;;
8831;SDS011;4452;50.756;4.472;2023-05-31T13:53:37;9.70;;;3.85;;
8831;SDS011;4452;50.756;4.472;2023-05-31T13:56:03;9.35;;;4.47;;
8831;SDS011;4452;50.756;4.472;2023-05-31T13:58:33;7.45;;;4.28;;
8831;SDS011;4452;50.756;4.472;2023-05-31T14:01:00;7.15;;;4.40;;
8831;SDS011;4452;50.756;4.472;2023-05-31T14:03:26;12.93;;;4.47;;
8831;SDS011;4452;50.756;4.472;2023-05-31T14:05:53;11.35;;;4.10;;
8831;SDS011;4452;50.756;4.472;2023-05-31T14:08:18;8.65;;;4.30;;
8831;SDS011;4452;50.756;4.472;2023-05-31T14:10:44;8.85;;;4.45;;
8831;SDS011;4452;50.756;4.472;2023-05-31T14:13:10;14.20;;;4.10;;
8831;SDS011;4452;50.756;4.472;2023-05-31T14:15:36;8.15;;;4.15;;
8831;SDS011;4452;50.756;4.472;2023-05-31T14:18:01;6.60;;;4.50;;
8831;SDS011;4452;50.756;4.472;2023-05-31T14:20:27;10.48;;;4.55;;
8831;SDS011;4452;50.756;4.472;2023-05-31T14:22:53;9.52;;;4.28;;
8831;SDS011;4452;50.756;4.472;2023-05-31T14:25:19;11.15;;;4.45;;
8831;SDS011;4452;50.756;4.472;2023-05-31T14:27:44;12.15;;;4.18;;
8831;SDS011;4452;50.756;4.472;2023-05-31T14:30:10;7.55;;;4.15;;
8831;SDS011;4452;50.756;4.472;2023-05-31T14:32:36;9.90;;;4.35;;
8831;SDS011;4452;50.756;4.472;2023-05-31T14:35:02;9.45;;;4.40;;
8831;SDS011;4452;50.756;4.472;2023-05-31T14:37:28;12.82;;;4.30;;
8831;SDS011;4452;50.756;4.472;2023-05-31T14:39:53;7.43;;;4.20;;
8831;SDS011;4452;50.756;4.472;2023-05-31T14:42:19;8.90;;;4.10;;
8831;SDS011;4452;50.756;4.472;2023-05-31T14:44:46;8.35;;;4.10;;
8831;SDS011;4452;50.756;4.472;2023-05-31T14:47:12;9.65;;;4.20;;
8831;SDS011;4452;50.756;4.472;2023-05-31T14:49:37;8.77;;;4.18;;
8831;SDS011;4452;50.756;4.472;2023-05-31T14:52:03;9.50;;;4.13;;
8831;SDS011;4452;50.756;4.472;2023-05-31T14:54:32;11.10;;;4.18;;
8831;SDS011;4452;50.756;4.472;2023-05-31T14:56:58;8.00;;;4.40;;
8831;SDS011;4452;50.756;4.472;2023-05-31T14:59:24;10.65;;;4.00;;
8831;SDS011;4452;50.756;4.472;2023-05-31T15:01:53;10.40;;;4.05;;
8831;SDS011;4452;50.756;4.472;2023-05-31T15:04:19;9.48;;;4.40;;
8831;SDS011;4452;50.756;4.472;2023-05-31T15:06:45;12.27;;;4.60;;
8831;SDS011;4452;50.756;4.472;2023-05-31T15:09:11;9.98;;;4.38;;
8831;SDS011;4452;50.756;4.472;2023-05-31T15:11:37;13.18;;;4.32;;
8831;SDS011;4452;50.756;4.472;2023-05-31T15:14:03;10.85;;;4.20;;
8831;SDS011;4452;50.756;4.472;2023-05-31T15:16:29;11.07;;;4.50;;
8831;SDS011;4452;50.756;4.472;2023-05-31T15:18:55;10.35;;;4.13;;
8831;SDS011;4452;50.756;4.472;2023-05-31T15:21:21;9.85;;;4.25;;
8831;SDS011;4452;50.756;4.472;2023-05-31T15:23:47;10.23;;;4.07;;
8831;SDS011;4452;50.756;4.472;2023-05-31T15:26:16;16.40;;;4.07;;
8831;SDS011;4452;50.756;4.472;2023-05-31T15:28:43;9.30;;;4.25;;
8831;SDS011;4452;50.756;4.472;2023-05-31T15:31:08;10.65;;;4.13;;
8831;SDS011;4452;50.756;4.472;2023-05-31T15:33:35;9.13;;;3.70;;
8831;SDS011;4452;50.756;4.472;2023-05-31T15:36:04;13.05;;;4.20;;